sensor_id;sensor_type;location;lat;lon;timestamp;P1;durP1;ratioP1;P2;durP2;ratioP2
16063;SDS011;8136;53.172;8.256;2022-07-18T00:01:56;7.77;;;4.13;;
16063;SDS011;8136;53.172;8.256;2022-07-18T00:04:35;5.93;;;3.93;;
16063;SDS011;8136;53.172;8.256;2022-07-18T00:07:02;5.80;;;3.80;;
16063;SDS011;8136;53.172;8.256;2022-07-18T00:09:29;6.87;;;3.80;;
16063;SDS011;8136;53.172;8.256;2022-07-18T00:11:56;6.57;;;3.50;;
16063;SDS011;8136;53.172;8.256;2022-07-18T00:14:22;6.87;;;4.13;;
16063;SDS011;8136;53.172;8.256;2022-07-18T00:16:49;6.97;;;3.80;;
16063;SDS011;8136;53.172;8.256;2022-07-18T00:19:16;5.40;;;3.70;;
16063;SDS011;8136;53.172;8.256;2022-07-18T00:21:44;6.80;;;3.90;;
16063;SDS011;8136;53.172;8.256;2022-07-18T00:24:11;5.43;;;3.47;;
16063;SDS011;8136;53.172;8.256;2022-07-18T00:26:38;6.10;;;3.60;;
16063;SDS011;8136;53.172;8.256;2022-07-18T00:29:05;5.63;;;3.20;;
16063;SDS011;8136;53.172;8.256;2022-07-18T00:31:32;4.43;;;3.00;;
16063;SDS011;8136;53.172;8.256;2022-07-18T00:33:59;4.40;;;3.17;;
16063;SDS011;8136;53.172;8.256;2022-07-18T00:36:26;5.20;;;2.90;;
16063;SDS011;8136;53.172;8.256;2022-07-18T00:38:55;4.17;;;3.17;;
16063;SDS011;8136;53.172;8.256;2022-07-18T00:41:22;4.23;;;3.20;;
16063;SDS011;8136;53.172;8.256;2022-07-18T00:43:49;4.37;;;3.20;;
16063;SDS011;8136;53.172;8.256;2022-07-18T00:46:19;7.30;;;3.27;;
16063;SDS011;8136;53.172;8.256;2022-07-18T00:48:47;4.80;;;3.57;;
16063;SDS011;8136;53.172;8.256;2022-07-18T00:51:14;6.10;;;3.60;;
16063;SDS011;8136;53.172;8.256;2022-07-18T00:53:41;5.43;;;3.67;;
16063;SDS011;8136;53.172;8.256;2022-07-18T00:56:10;4.97;;;3.70;;
16063;SDS011;8136;53.172;8.256;2022-07-18T00:58:38;5.23;;;3.43;;
16063;SDS011;8136;53.172;8.256;2022-07-18T01:01:05;5.17;;;3.30;;
16063;SDS011;8136;53.172;8.256;2022-07-18T01:03:49;4.20;;;3.37;;
16063;SDS011;8136;53.172;8.256;2022-07-18T01:06:16;5.00;;;3.53;;
16063;SDS011;8136;53.172;8.256;2022-07-18T01:08:43;5.47;;;2.90;;
16063;SDS011;8136;53.172;8.256;2022-07-18T01:11:11;5.63;;;3.10;;
16063;SDS011;8136;53.172;8.256;2022-07-18T01:13:39;6.03;;;3.40;;
16063;SDS011;8136;53.172;8.256;2022-07-18T01:16:07;5.67;;;3.40;;
16063;SDS011;8136;53.172;8.256;2022-07-18T01:18:34;4.80;;;3.37;;
16063;SDS011;8136;53.172;8.256;2022-07-18T01:21:02;4.77;;;3.03;;
16063;SDS011;8136;53.172;8.256;2022-07-18T01:23:29;5.00;;;3.50;;
16063;SDS011;8136;53.172;8.256;2022-07-18T01:25:56;4.00;;;3.20;;
16063;SDS011;8136;53.172;8.256;2022-07-18T01:28:23;3.80;;;2.87;;
16063;SDS011;8136;53.172;8.256;2022-07-18T01:30:50;4.80;;;3.47;;
16063;SDS011;8136;53.172;8.256;2022-07-18T01:33:16;4.33;;;2.83;;
16063;SDS011;8136;53.172;8.256;2022-07-18T01:35:43;6.30;;;3.13;;
16063;SDS011;8136;53.172;8.256;2022-07-18T01:38:11;5.63;;;3.43;;
16063;SDS011;8136;53.172;8.256;2022-07-18T01:40:38;5.17;;;3.00;;
16063;SDS011;8136;53.172;8.256;2022-07-18T01:43:05;4.53;;;3.03;;
16063;SDS011;8136;53.172;8.256;2022-07-18T01:45:32;5.57;;;3.30;;
16063;SDS011;8136;53.172;8.256;2022-07-18T01:47:59;3.47;;;3.00;;
16063;SDS011;8136;53.172;8.256;2022-07-18T01:50:26;4.43;;;2.97;;
16063;SDS011;8136;53.172;8.256;2022-07-18T01:52:52;4.33;;;2.97;;
16063;SDS011;8136;53.172;8.256;2022-07-18T01:55:20;4.20;;;2.80;;
16063;SDS011;8136;53.172;8.256;2022-07-18T01:57:47;5.17;;;2.93;;
16063;SDS011;8136;53.172;8.256;2022-07-18T02:00:14;3.83;;;2.73;;
16063;SDS011;8136;53.172;8.256;2022-07-18T02:02:41;4.70;;;2.70;;
16063;SDS011;8136;53.172;8.256;2022-07-18T02:05:08;3.80;;;2.67;;
16063;SDS011;8136;53.172;8.256;2022-07-18T02:07:36;4.70;;;2.80;;
16063;SDS011;8136;53.172;8.256;2022-07-18T02:10:05;4.73;;;3.30;;
16063;SDS011;8136;53.172;8.256;2022-07-18T02:12:35;3.90;;;3.00;;
16063;SDS011;8136;53.172;8.256;2022-07-18T02:15:03;3.97;;;3.10;;
16063;SDS011;8136;53.172;8.256;2022-07-18T02:17:31;3.67;;;2.93;;
16063;SDS011;8136;53.172;8.256;2022-07-18T02:19:58;5.47;;;3.17;;
16063;SDS011;8136;53.172;8.256;2022-07-18T02:22:26;4.93;;;2.77;;
16063;SDS011;8136;53.172;8.256;2022-07-18T02:24:52;4.60;;;2.67;;
16063;SDS011;8136;53.172;8.256;2022-07-18T02:27:19;3.27;;;2.90;;
16063;SDS011;8136;53.172;8.256;2022-07-18T02:29:48;4.77;;;3.00;;
16063;SDS011;8136;53.172;8.256;2022-07-18T02:32:15;3.73;;;2.90;;
16063;SDS011;8136;53.172;8.256;2022-07-18T02:34:42;4.80;;;3.20;;
16063;SDS011;8136;53.172;8.256;2022-07-18T02:37:09;3.67;;;3.10;;
16063;SDS011;8136;53.172;8.256;2022-07-18T02:39:36;3.93;;;3.07;;
16063;SDS011;8136;53.172;8.256;2022-07-18T02:42:04;3.90;;;2.90;;
16063;SDS011;8136;53.172;8.256;2022-07-18T02:44:31;5.77;;;2.93;;
16063;SDS011;8136;53.172;8.256;2022-07-18T02:46:59;4.57;;;2.83;;
16063;SDS011;8136;53.172;8.256;2022-07-18T02:49:26;6.00;;;3.17;;
16063;SDS011;8136;53.172;8.256;2022-07-18T02:51:54;4.63;;;2.90;;
16063;SDS011;8136;53.172;8.256;2022-07-18T02:54:22;4.37;;;3.07;;
16063;SDS011;8136;53.172;8.256;2022-07-18T02:56:50;5.20;;;3.03;;
16063;SDS011;8136;53.172;8.256;2022-07-18T02:59:17;5.13;;;3.07;;
16063;SDS011;8136;53.172;8.256;2022-07-18T03:01:44;5.10;;;3.20;;
16063;SDS011;8136;53.172;8.256;2022-07-18T03:04:12;4.07;;;2.90;;
16063;SDS011;8136;53.172;8.256;2022-07-18T03:06:39;6.83;;;3.70;;
16063;SDS011;8136;53.172;8.256;2022-07-18T03:09:06;4.93;;;3.43;;
16063;SDS011;8136;53.172;8.256;2022-07-18T03:11:33;4.60;;;2.80;;
16063;SDS011;8136;53.172;8.256;2022-07-18T03:14:00;3.63;;;3.03;;
16063;SDS011;8136;53.172;8.256;2022-07-18T03:16:27;5.17;;;3.00;;
16063;SDS011;8136;53.172;8.256;2022-07-18T03:18:53;4.47;;;3.40;;
16063;SDS011;8136;53.172;8.256;2022-07-18T03:21:21;5.90;;;3.10;;
16063;SDS011;8136;53.172;8.256;2022-07-18T03:23:48;3.50;;;3.10;;
16063;SDS011;8136;53.172;8.256;2022-07-18T03:26:15;6.00;;;3.27;;
16063;SDS011;8136;53.172;8.256;2022-07-18T03:28:42;6.70;;;2.83;;
16063;SDS011;8136;53.172;8.256;2022-07-18T03:31:09;4.60;;;3.10;;
16063;SDS011;8136;53.172;8.256;2022-07-18T03:33:37;6.87;;;3.40;;
16063;SDS011;8136;53.172;8.256;2022-07-18T03:36:03;5.50;;;3.50;;
16063;SDS011;8136;53.172;8.256;2022-07-18T03:38:33;5.57;;;3.20;;
16063;SDS011;8136;53.172;8.256;2022-07-18T03:41:00;7.53;;;3.57;;
16063;SDS011;8136;53.172;8.256;2022-07-18T03:43:28;6.80;;;3.27;;
16063;SDS011;8136;53.172;8.256;2022-07-18T03:45:55;4.67;;;3.13;;
16063;SDS011;8136;53.172;8.256;2022-07-18T03:48:22;4.73;;;3.43;;
16063;SDS011;8136;53.172;8.256;2022-07-18T03:50:49;4.73;;;3.40;;
16063;SDS011;8136;53.172;8.256;2022-07-18T03:53:16;5.13;;;3.13;;
16063;SDS011;8136;53.172;8.256;2022-07-18T03:55:44;5.80;;;3.27;;
16063;SDS011;8136;53.172;8.256;2022-07-18T03:58:11;4.90;;;3.30;;
16063;SDS011;8136;53.172;8.256;2022-07-18T04:00:38;4.33;;;3.40;;
16063;SDS011;8136;53.172;8.256;2022-07-18T04:03:04;4.37;;;3.50;;
16063;SDS011;8136;53.172;8.256;2022-07-18T04:05:31;4.70;;;3.30;;
16063;SDS011;8136;53.172;8.256;2022-07-18T04:07:58;4.50;;;3.30;;
16063;SDS011;8136;53.172;8.256;2022-07-18T04:10:25;7.10;;;3.30;;
16063;SDS011;8136;53.172;8.256;2022-07-18T04:12:54;5.67;;;3.47;;
16063;SDS011;8136;53.172;8.256;2022-07-18T04:15:22;6.03;;;2.80;;
16063;SDS011;8136;53.172;8.256;2022-07-18T04:17:51;5.67;;;2.87;;
16063;SDS011;8136;53.172;8.256;2022-07-18T04:20:19;4.00;;;2.97;;
16063;SDS011;8136;53.172;8.256;2022-07-18T04:22:47;5.03;;;3.00;;
16063;SDS011;8136;53.172;8.256;2022-07-18T04:25:15;5.60;;;3.60;;
16063;SDS011;8136;53.172;8.256;2022-07-18T04:27:42;5.73;;;2.93;;
16063;SDS011;8136;53.172;8.256;2022-07-18T04:30:11;5.73;;;3.00;;
16063;SDS011;8136;53.172;8.256;2022-07-18T04:32:39;3.67;;;2.80;;
16063;SDS011;8136;53.172;8.256;2022-07-18T04:35:06;3.33;;;2.90;;
16063;SDS011;8136;53.172;8.256;2022-07-18T04:37:34;5.97;;;3.30;;
16063;SDS011;8136;53.172;8.256;2022-07-18T04:40:02;5.63;;;2.40;;
16063;SDS011;8136;53.172;8.256;2022-07-18T04:42:30;4.37;;;2.97;;
16063;SDS011;8136;53.172;8.256;2022-07-18T04:44:56;3.83;;;2.60;;
16063;SDS011;8136;53.172;8.256;2022-07-18T04:47:25;3.37;;;2.70;;
16063;SDS011;8136;53.172;8.256;2022-07-18T04:49:53;4.10;;;2.80;;
16063;SDS011;8136;53.172;8.256;2022-07-18T04:52:20;7.13;;;4.30;;
16063;SDS011;8136;53.172;8.256;2022-07-18T04:54:47;6.47;;;3.87;;
16063;SDS011;8136;53.172;8.256;2022-07-18T04:57:14;4.67;;;3.13;;
16063;SDS011;8136;53.172;8.256;2022-07-18T04:59:41;6.07;;;3.17;;
16063;SDS011;8136;53.172;8.256;2022-07-18T05:02:08;6.43;;;3.20;;
16063;SDS011;8136;53.172;8.256;2022-07-18T05:04:37;7.60;;;3.53;;
16063;SDS011;8136;53.172;8.256;2022-07-18T05:07:05;5.33;;;2.97;;
16063;SDS011;8136;53.172;8.256;2022-07-18T05:09:32;4.37;;;2.83;;
16063;SDS011;8136;53.172;8.256;2022-07-18T05:11:59;3.93;;;3.00;;
16063;SDS011;8136;53.172;8.256;2022-07-18T05:14:26;6.83;;;3.30;;
16063;SDS011;8136;53.172;8.256;2022-07-18T05:16:53;6.30;;;2.43;;
16063;SDS011;8136;53.172;8.256;2022-07-18T05:19:20;4.93;;;2.60;;
16063;SDS011;8136;53.172;8.256;2022-07-18T05:21:48;5.33;;;2.50;;
16063;SDS011;8136;53.172;8.256;2022-07-18T05:24:14;4.73;;;2.60;;
16063;SDS011;8136;53.172;8.256;2022-07-18T05:26:42;9.30;;;3.20;;
16063;SDS011;8136;53.172;8.256;2022-07-18T05:29:09;5.47;;;2.80;;
16063;SDS011;8136;53.172;8.256;2022-07-18T05:31:37;2.73;;;2.37;;
16063;SDS011;8136;53.172;8.256;2022-07-18T05:34:04;6.00;;;2.77;;
16063;SDS011;8136;53.172;8.256;2022-07-18T05:36:31;5.00;;;2.57;;
16063;SDS011;8136;53.172;8.256;2022-07-18T05:38:59;4.23;;;1.90;;
16063;SDS011;8136;53.172;8.256;2022-07-18T05:41:26;3.70;;;2.50;;
16063;SDS011;8136;53.172;8.256;2022-07-18T05:43:53;3.43;;;2.60;;
16063;SDS011;8136;53.172;8.256;2022-07-18T05:46:20;6.33;;;3.20;;
16063;SDS011;8136;53.172;8.256;2022-07-18T05:48:46;7.10;;;3.30;;
16063;SDS011;8136;53.172;8.256;2022-07-18T05:51:13;5.93;;;3.20;;
16063;SDS011;8136;53.172;8.256;2022-07-18T05:53:40;6.67;;;3.53;;
16063;SDS011;8136;53.172;8.256;2022-07-18T05:56:09;5.73;;;3.03;;
16063;SDS011;8136;53.172;8.256;2022-07-18T05:58:36;7.17;;;3.10;;
16063;SDS011;8136;53.172;8.256;2022-07-18T06:01:02;7.10;;;2.80;;
16063;SDS011;8136;53.172;8.256;2022-07-18T06:03:29;8.13;;;3.23;;
16063;SDS011;8136;53.172;8.256;2022-07-18T06:05:56;5.53;;;3.20;;
16063;SDS011;8136;53.172;8.256;2022-07-18T06:08:23;5.53;;;2.87;;
16063;SDS011;8136;53.172;8.256;2022-07-18T06:10:50;5.03;;;2.50;;
16063;SDS011;8136;53.172;8.256;2022-07-18T06:13:18;3.43;;;2.30;;
16063;SDS011;8136;53.172;8.256;2022-07-18T06:15:44;6.03;;;2.00;;
16063;SDS011;8136;53.172;8.256;2022-07-18T06:18:11;4.17;;;1.77;;
16063;SDS011;8136;53.172;8.256;2022-07-18T06:20:38;4.10;;;1.80;;
16063;SDS011;8136;53.172;8.256;2022-07-18T06:23:05;2.57;;;1.77;;
16063;SDS011;8136;53.172;8.256;2022-07-18T06:25:32;2.40;;;1.70;;
16063;SDS011;8136;53.172;8.256;2022-07-18T06:27:59;3.53;;;1.70;;
16063;SDS011;8136;53.172;8.256;2022-07-18T06:30:27;4.07;;;1.67;;
16063;SDS011;8136;53.172;8.256;2022-07-18T06:32:53;6.00;;;2.00;;
16063;SDS011;8136;53.172;8.256;2022-07-18T06:35:20;1.97;;;1.63;;
16063;SDS011;8136;53.172;8.256;2022-07-18T06:37:47;3.30;;;1.87;;
16063;SDS011;8136;53.172;8.256;2022-07-18T06:40:14;2.83;;;2.27;;
16063;SDS011;8136;53.172;8.256;2022-07-18T06:42:40;4.33;;;1.90;;
16063;SDS011;8136;53.172;8.256;2022-07-18T06:45:07;5.20;;;2.10;;
16063;SDS011;8136;53.172;8.256;2022-07-18T06:47:36;3.93;;;1.80;;
16063;SDS011;8136;53.172;8.256;2022-07-18T06:50:03;3.50;;;2.00;;
16063;SDS011;8136;53.172;8.256;2022-07-18T06:52:30;4.83;;;1.87;;
16063;SDS011;8136;53.172;8.256;2022-07-18T06:54:57;3.20;;;1.60;;
16063;SDS011;8136;53.172;8.256;2022-07-18T06:57:25;4.37;;;1.80;;
16063;SDS011;8136;53.172;8.256;2022-07-18T06:59:52;5.00;;;1.73;;
16063;SDS011;8136;53.172;8.256;2022-07-18T07:02:19;3.50;;;1.83;;
16063;SDS011;8136;53.172;8.256;2022-07-18T07:04:47;2.77;;;1.70;;
16063;SDS011;8136;53.172;8.256;2022-07-18T07:07:14;4.83;;;1.87;;
16063;SDS011;8136;53.172;8.256;2022-07-18T07:09:41;3.17;;;1.50;;
16063;SDS011;8136;53.172;8.256;2022-07-18T07:12:08;3.90;;;1.50;;
16063;SDS011;8136;53.172;8.256;2022-07-18T07:14:35;3.30;;;1.70;;
16063;SDS011;8136;53.172;8.256;2022-07-18T07:17:02;4.70;;;1.50;;
16063;SDS011;8136;53.172;8.256;2022-07-18T07:19:29;5.03;;;1.70;;
16063;SDS011;8136;53.172;8.256;2022-07-18T07:21:57;3.10;;;1.80;;
16063;SDS011;8136;53.172;8.256;2022-07-18T07:24:24;3.07;;;1.63;;
16063;SDS011;8136;53.172;8.256;2022-07-18T07:26:51;5.03;;;1.60;;
16063;SDS011;8136;53.172;8.256;2022-07-18T07:29:18;5.00;;;1.93;;
16063;SDS011;8136;53.172;8.256;2022-07-18T07:31:45;2.13;;;1.40;;
16063;SDS011;8136;53.172;8.256;2022-07-18T07:34:12;5.93;;;1.63;;
16063;SDS011;8136;53.172;8.256;2022-07-18T07:36:39;3.63;;;1.50;;
16063;SDS011;8136;53.172;8.256;2022-07-18T07:39:07;4.93;;;1.80;;
16063;SDS011;8136;53.172;8.256;2022-07-18T07:41:34;5.00;;;1.50;;
16063;SDS011;8136;53.172;8.256;2022-07-18T07:44:01;4.93;;;2.00;;
16063;SDS011;8136;53.172;8.256;2022-07-18T07:46:28;3.50;;;1.50;;
16063;SDS011;8136;53.172;8.256;2022-07-18T07:48:54;4.63;;;2.03;;
16063;SDS011;8136;53.172;8.256;2022-07-18T07:51:21;6.27;;;1.70;;
16063;SDS011;8136;53.172;8.256;2022-07-18T07:53:48;2.67;;;1.60;;
16063;SDS011;8136;53.172;8.256;2022-07-18T07:56:16;3.37;;;1.80;;
16063;SDS011;8136;53.172;8.256;2022-07-18T07:58:44;3.90;;;1.57;;
16063;SDS011;8136;53.172;8.256;2022-07-18T08:01:11;5.83;;;1.70;;
16063;SDS011;8136;53.172;8.256;2022-07-18T08:03:39;6.60;;;1.83;;
16063;SDS011;8136;53.172;8.256;2022-07-18T08:06:06;3.13;;;1.40;;
16063;SDS011;8136;53.172;8.256;2022-07-18T08:08:33;6.40;;;1.53;;
16063;SDS011;8136;53.172;8.256;2022-07-18T08:10:59;3.90;;;1.50;;
16063;SDS011;8136;53.172;8.256;2022-07-18T08:13:28;3.63;;;1.53;;
16063;SDS011;8136;53.172;8.256;2022-07-18T08:15:54;4.17;;;1.63;;
16063;SDS011;8136;53.172;8.256;2022-07-18T08:18:21;3.50;;;1.50;;
16063;SDS011;8136;53.172;8.256;2022-07-18T08:20:48;5.50;;;1.40;;
16063;SDS011;8136;53.172;8.256;2022-07-18T08:23:15;3.80;;;1.50;;
16063;SDS011;8136;53.172;8.256;2022-07-18T08:25:43;3.47;;;1.10;;
16063;SDS011;8136;53.172;8.256;2022-07-18T08:28:11;2.83;;;1.10;;
16063;SDS011;8136;53.172;8.256;2022-07-18T08:30:40;3.43;;;1.30;;
16063;SDS011;8136;53.172;8.256;2022-07-18T08:33:07;2.30;;;1.30;;
16063;SDS011;8136;53.172;8.256;2022-07-18T08:35:34;4.33;;;1.20;;
16063;SDS011;8136;53.172;8.256;2022-07-18T08:38:01;3.47;;;1.37;;
16063;SDS011;8136;53.172;8.256;2022-07-18T08:40:29;3.27;;;1.50;;
16063;SDS011;8136;53.172;8.256;2022-07-18T08:42:56;3.37;;;1.40;;
16063;SDS011;8136;53.172;8.256;2022-07-18T08:45:24;2.70;;;1.10;;
16063;SDS011;8136;53.172;8.256;2022-07-18T08:47:53;3.87;;;1.30;;
16063;SDS011;8136;53.172;8.256;2022-07-18T08:50:20;8.50;;;1.47;;
16063;SDS011;8136;53.172;8.256;2022-07-18T08:52:48;2.90;;;1.50;;
16063;SDS011;8136;53.172;8.256;2022-07-18T08:55:15;3.47;;;1.47;;
16063;SDS011;8136;53.172;8.256;2022-07-18T08:57:42;3.93;;;1.40;;
16063;SDS011;8136;53.172;8.256;2022-07-18T09:00:10;2.43;;;1.33;;
16063;SDS011;8136;53.172;8.256;2022-07-18T09:02:37;3.27;;;1.30;;
16063;SDS011;8136;53.172;8.256;2022-07-18T09:05:06;7.20;;;1.80;;
16063;SDS011;8136;53.172;8.256;2022-07-18T09:07:44;3.47;;;1.10;;
16063;SDS011;8136;53.172;8.256;2022-07-18T09:10:11;3.77;;;1.60;;
16063;SDS011;8136;53.172;8.256;2022-07-18T09:12:37;3.83;;;1.30;;
16063;SDS011;8136;53.172;8.256;2022-07-18T09:15:05;1.97;;;1.27;;
16063;SDS011;8136;53.172;8.256;2022-07-18T09:17:33;2.20;;;1.40;;
16063;SDS011;8136;53.172;8.256;2022-07-18T09:20:02;2.63;;;1.20;;
16063;SDS011;8136;53.172;8.256;2022-07-18T09:22:34;3.27;;;1.80;;
16063;SDS011;8136;53.172;8.256;2022-07-18T09:25:04;2.70;;;1.40;;
16063;SDS011;8136;53.172;8.256;2022-07-18T09:27:33;3.40;;;1.30;;
16063;SDS011;8136;53.172;8.256;2022-07-18T09:30:06;2.73;;;1.77;;
16063;SDS011;8136;53.172;8.256;2022-07-18T09:32:45;3.33;;;1.63;;
16063;SDS011;8136;53.172;8.256;2022-07-18T09:35:13;5.00;;;1.73;;
16063;SDS011;8136;53.172;8.256;2022-07-18T09:37:52;2.93;;;1.60;;
16063;SDS011;8136;53.172;8.256;2022-07-18T09:40:27;3.13;;;1.97;;
16063;SDS011;8136;53.172;8.256;2022-07-18T09:42:56;4.53;;;2.03;;
16063;SDS011;8136;53.172;8.256;2022-07-18T09:45:24;3.37;;;2.00;;
16063;SDS011;8136;53.172;8.256;2022-07-18T09:47:53;3.50;;;2.10;;
16063;SDS011;8136;53.172;8.256;2022-07-18T09:50:22;3.80;;;2.23;;
16063;SDS011;8136;53.172;8.256;2022-07-18T09:52:59;2.03;;;1.80;;
16063;SDS011;8136;53.172;8.256;2022-07-18T09:55:41;4.70;;;1.90;;
16063;SDS011;8136;53.172;8.256;2022-07-18T09:58:09;2.47;;;1.80;;
16063;SDS011;8136;53.172;8.256;2022-07-18T10:00:37;2.93;;;1.90;;
16063;SDS011;8136;53.172;8.256;2022-07-18T10:03:05;3.60;;;1.80;;
16063;SDS011;8136;53.172;8.256;2022-07-18T10:05:34;3.73;;;2.60;;
16063;SDS011;8136;53.172;8.256;2022-07-18T10:08:04;3.43;;;2.23;;
16063;SDS011;8136;53.172;8.256;2022-07-18T10:10:32;3.20;;;2.30;;
16063;SDS011;8136;53.172;8.256;2022-07-18T10:12:59;6.60;;;2.20;;
16063;SDS011;8136;53.172;8.256;2022-07-18T10:15:28;2.90;;;2.40;;
16063;SDS011;8136;53.172;8.256;2022-07-18T10:17:57;6.17;;;3.10;;
16063;SDS011;8136;53.172;8.256;2022-07-18T10:20:25;3.07;;;2.73;;
16063;SDS011;8136;53.172;8.256;2022-07-18T10:22:56;4.10;;;2.30;;
16063;SDS011;8136;53.172;8.256;2022-07-18T10:25:41;3.43;;;2.43;;
16063;SDS011;8136;53.172;8.256;2022-07-18T10:28:09;8.13;;;2.97;;
16063;SDS011;8136;53.172;8.256;2022-07-18T10:30:38;4.27;;;2.87;;
16063;SDS011;8136;53.172;8.256;2022-07-18T10:36:05;3.77;;;2.80;;
16063;SDS011;8136;53.172;8.256;2022-07-18T10:38:33;4.23;;;2.70;;
16063;SDS011;8136;53.172;8.256;2022-07-18T10:41:02;5.00;;;2.80;;
16063;SDS011;8136;53.172;8.256;2022-07-18T10:43:42;5.60;;;3.17;;
16063;SDS011;8136;53.172;8.256;2022-07-18T10:46:11;4.57;;;3.27;;
16063;SDS011;8136;53.172;8.256;2022-07-18T10:51:30;4.30;;;3.07;;
16063;SDS011;8136;53.172;8.256;2022-07-18T10:54:07;5.90;;;3.50;;
16063;SDS011;8136;53.172;8.256;2022-07-18T10:59:35;4.90;;;3.33;;
16063;SDS011;8136;53.172;8.256;2022-07-18T11:02:04;4.80;;;3.30;;
16063;SDS011;8136;53.172;8.256;2022-07-18T11:04:33;4.87;;;3.37;;
16063;SDS011;8136;53.172;8.256;2022-07-18T11:07:03;5.77;;;3.50;;
16063;SDS011;8136;53.172;8.256;2022-07-18T11:09:35;4.27;;;3.50;;
16063;SDS011;8136;53.172;8.256;2022-07-18T11:12:21;5.60;;;3.40;;
16063;SDS011;8136;53.172;8.256;2022-07-18T11:15:03;4.23;;;3.50;;
16063;SDS011;8136;53.172;8.256;2022-07-18T11:17:53;4.87;;;3.90;;
16063;SDS011;8136;53.172;8.256;2022-07-18T11:23:16;6.20;;;3.70;;
16063;SDS011;8136;53.172;8.256;2022-07-18T11:25:45;4.57;;;3.47;;
16063;SDS011;8136;53.172;8.256;2022-07-18T11:28:14;5.40;;;3.77;;
16063;SDS011;8136;53.172;8.256;2022-07-18T11:30:41;6.63;;;4.13;;
16063;SDS011;8136;53.172;8.256;2022-07-18T11:33:22;4.87;;;3.70;;
16063;SDS011;8136;53.172;8.256;2022-07-18T11:35:51;8.40;;;4.20;;
16063;SDS011;8136;53.172;8.256;2022-07-18T11:38:18;6.43;;;4.10;;
16063;SDS011;8136;53.172;8.256;2022-07-18T11:40:46;5.57;;;3.43;;
16063;SDS011;8136;53.172;8.256;2022-07-18T11:43:20;5.03;;;3.40;;
16063;SDS011;8136;53.172;8.256;2022-07-18T11:45:47;6.73;;;4.10;;
16063;SDS011;8136;53.172;8.256;2022-07-18T11:48:24;5.53;;;3.90;;
16063;SDS011;8136;53.172;8.256;2022-07-18T11:50:50;6.13;;;3.93;;
16063;SDS011;8136;53.172;8.256;2022-07-18T11:53:17;6.17;;;3.80;;
16063;SDS011;8136;53.172;8.256;2022-07-18T11:55:44;4.53;;;3.37;;
16063;SDS011;8136;53.172;8.256;2022-07-18T11:58:11;5.47;;;3.83;;
16063;SDS011;8136;53.172;8.256;2022-07-18T12:00:41;4.27;;;3.73;;
16063;SDS011;8136;53.172;8.256;2022-07-18T12:03:09;5.17;;;3.50;;
16063;SDS011;8136;53.172;8.256;2022-07-18T12:05:38;5.80;;;3.77;;
16063;SDS011;8136;53.172;8.256;2022-07-18T12:08:25;4.23;;;3.70;;
16063;SDS011;8136;53.172;8.256;2022-07-18T12:13:50;5.53;;;3.37;;
16063;SDS011;8136;53.172;8.256;2022-07-18T12:19:10;5.17;;;3.67;;
16063;SDS011;8136;53.172;8.256;2022-07-18T12:21:39;4.97;;;3.90;;
16063;SDS011;8136;53.172;8.256;2022-07-18T12:24:17;7.43;;;3.20;;
16063;SDS011;8136;53.172;8.256;2022-07-18T12:27:08;7.10;;;3.33;;
16063;SDS011;8136;53.172;8.256;2022-07-18T12:29:54;7.70;;;3.40;;
16063;SDS011;8136;53.172;8.256;2022-07-18T12:32:44;4.53;;;3.40;;
16063;SDS011;8136;53.172;8.256;2022-07-18T12:35:12;6.17;;;3.57;;
16063;SDS011;8136;53.172;8.256;2022-07-18T12:37:50;4.20;;;3.40;;
16063;SDS011;8136;53.172;8.256;2022-07-18T12:40:21;8.53;;;3.43;;
16063;SDS011;8136;53.172;8.256;2022-07-18T12:42:49;6.93;;;3.27;;
16063;SDS011;8136;53.172;8.256;2022-07-18T12:45:26;4.93;;;3.67;;
16063;SDS011;8136;53.172;8.256;2022-07-18T12:47:54;4.63;;;3.17;;
16063;SDS011;8136;53.172;8.256;2022-07-18T12:50:21;5.10;;;3.47;;
16063;SDS011;8136;53.172;8.256;2022-07-18T12:52:48;6.10;;;3.23;;
16063;SDS011;8136;53.172;8.256;2022-07-18T12:55:15;4.80;;;3.33;;
16063;SDS011;8136;53.172;8.256;2022-07-18T12:57:42;5.50;;;3.47;;
16063;SDS011;8136;53.172;8.256;2022-07-18T13:00:10;5.87;;;3.33;;
16063;SDS011;8136;53.172;8.256;2022-07-18T13:02:37;3.90;;;2.97;;
16063;SDS011;8136;53.172;8.256;2022-07-18T13:05:06;4.20;;;3.30;;
16063;SDS011;8136;53.172;8.256;2022-07-18T13:07:33;6.87;;;3.37;;
16063;SDS011;8136;53.172;8.256;2022-07-18T13:09:59;4.77;;;3.23;;
16063;SDS011;8136;53.172;8.256;2022-07-18T13:12:26;5.37;;;3.10;;
16063;SDS011;8136;53.172;8.256;2022-07-18T13:14:53;4.77;;;3.53;;
16063;SDS011;8136;53.172;8.256;2022-07-18T13:17:20;4.13;;;3.33;;
16063;SDS011;8136;53.172;8.256;2022-07-18T13:19:47;4.93;;;3.30;;
16063;SDS011;8136;53.172;8.256;2022-07-18T13:22:16;4.80;;;3.30;;
16063;SDS011;8136;53.172;8.256;2022-07-18T13:24:43;4.37;;;2.87;;
16063;SDS011;8136;53.172;8.256;2022-07-18T13:27:09;4.30;;;3.13;;
16063;SDS011;8136;53.172;8.256;2022-07-18T13:29:36;5.37;;;3.20;;
16063;SDS011;8136;53.172;8.256;2022-07-18T13:32:03;6.20;;;2.93;;
16063;SDS011;8136;53.172;8.256;2022-07-18T13:34:30;7.83;;;3.50;;
16063;SDS011;8136;53.172;8.256;2022-07-18T13:36:57;4.43;;;3.30;;
16063;SDS011;8136;53.172;8.256;2022-07-18T13:39:25;5.67;;;3.43;;
16063;SDS011;8136;53.172;8.256;2022-07-18T13:41:52;4.23;;;3.37;;
16063;SDS011;8136;53.172;8.256;2022-07-18T13:44:19;5.80;;;3.10;;
16063;SDS011;8136;53.172;8.256;2022-07-18T13:46:46;5.63;;;3.53;;
16063;SDS011;8136;53.172;8.256;2022-07-18T13:49:13;3.97;;;3.00;;
16063;SDS011;8136;53.172;8.256;2022-07-18T13:51:41;5.10;;;3.30;;
16063;SDS011;8136;53.172;8.256;2022-07-18T13:54:08;5.27;;;3.23;;
16063;SDS011;8136;53.172;8.256;2022-07-18T13:56:36;4.70;;;3.00;;
16063;SDS011;8136;53.172;8.256;2022-07-18T13:59:02;5.40;;;2.93;;
16063;SDS011;8136;53.172;8.256;2022-07-18T14:01:29;5.17;;;3.83;;
16063;SDS011;8136;53.172;8.256;2022-07-18T14:03:56;5.17;;;3.40;;
16063;SDS011;8136;53.172;8.256;2022-07-18T14:06:23;3.47;;;3.07;;
16063;SDS011;8136;53.172;8.256;2022-07-18T14:08:49;5.87;;;3.20;;
16063;SDS011;8136;53.172;8.256;2022-07-18T14:11:16;4.50;;;3.00;;
16063;SDS011;8136;53.172;8.256;2022-07-18T14:13:44;5.23;;;3.30;;
16063;SDS011;8136;53.172;8.256;2022-07-18T14:16:12;4.50;;;3.33;;
16063;SDS011;8136;53.172;8.256;2022-07-18T14:18:38;5.87;;;3.03;;
16063;SDS011;8136;53.172;8.256;2022-07-18T14:21:06;6.17;;;3.40;;
16063;SDS011;8136;53.172;8.256;2022-07-18T14:23:32;4.00;;;3.20;;
16063;SDS011;8136;53.172;8.256;2022-07-18T14:25:59;3.80;;;3.10;;
16063;SDS011;8136;53.172;8.256;2022-07-18T14:28:26;4.80;;;2.70;;
16063;SDS011;8136;53.172;8.256;2022-07-18T14:30:54;3.73;;;2.77;;
16063;SDS011;8136;53.172;8.256;2022-07-18T14:33:21;4.30;;;2.70;;
16063;SDS011;8136;53.172;8.256;2022-07-18T14:35:47;3.20;;;2.90;;
16063;SDS011;8136;53.172;8.256;2022-07-18T14:38:14;3.55;;;2.92;;
16063;SDS011;8136;53.172;8.256;2022-07-18T14:40:41;4.93;;;3.20;;
16063;SDS011;8136;53.172;8.256;2022-07-18T14:43:08;4.43;;;3.00;;
16063;SDS011;8136;53.172;8.256;2022-07-18T14:45:34;4.03;;;2.50;;
16063;SDS011;8136;53.172;8.256;2022-07-18T14:48:03;4.32;;;2.85;;
16063;SDS011;8136;53.172;8.256;2022-07-18T14:50:30;3.13;;;2.80;;
16063;SDS011;8136;53.172;8.256;2022-07-18T14:52:57;4.28;;;2.53;;
16063;SDS011;8136;53.172;8.256;2022-07-18T14:55:23;4.95;;;2.92;;
16063;SDS011;8136;53.172;8.256;2022-07-18T14:57:50;4.03;;;2.90;;
16063;SDS011;8136;53.172;8.256;2022-07-18T15:00:17;4.60;;;2.97;;
16063;SDS011;8136;53.172;8.256;2022-07-18T15:02:44;5.55;;;2.97;;
16063;SDS011;8136;53.172;8.256;2022-07-18T15:05:12;4.20;;;2.92;;
16063;SDS011;8136;53.172;8.256;2022-07-18T15:07:39;4.43;;;2.70;;
16063;SDS011;8136;53.172;8.256;2022-07-18T15:10:06;3.63;;;2.50;;
16063;SDS011;8136;53.172;8.256;2022-07-18T15:12:34;2.78;;;2.28;;
16063;SDS011;8136;53.172;8.256;2022-07-18T15:15:02;4.47;;;2.83;;
16063;SDS011;8136;53.172;8.256;2022-07-18T15:17:29;3.75;;;2.72;;
16063;SDS011;8136;53.172;8.256;2022-07-18T15:19:56;3.67;;;2.80;;
16063;SDS011;8136;53.172;8.256;2022-07-18T15:22:24;3.53;;;2.60;;
16063;SDS011;8136;53.172;8.256;2022-07-18T15:24:52;3.67;;;2.80;;